createdAt,value
2023-09-07T00:01:09.578Z,3.38
2023-09-07T00:06:11.953Z,3.20
2023-09-07T00:11:14.115Z,2.90
2023-09-07T00:16:16.281Z,3.33
2023-09-07T00:21:18.448Z,2.63
2023-09-07T00:26:20.605Z,2.55
2023-09-07T00:31:23.311Z,2.75
2023-09-07T00:36:25.488Z,2.60
2023-09-07T00:41:27.645Z,2.72
2023-09-07T00:46:29.816Z,2.28
2023-09-07T00:51:32.974Z,2.70
2023-09-07T00:56:37.393Z,2.80
2023-09-07T01:01:39.901Z,2.38
2023-09-07T01:06:52.398Z,3.78
2023-09-07T01:11:54.712Z,3.25
2023-09-07T01:16:57.470Z,3.70
2023-09-07T01:22:01.372Z,3.38
2023-09-07T01:27:04.471Z,3.38
2023-09-07T01:32:07.404Z,3.08
2023-09-07T01:37:09.689Z,3.00
2023-09-07T01:42:12.561Z,2.60
2023-09-07T01:47:14.793Z,2.80
2023-09-07T01:52:16.997Z,3.22
2023-09-07T01:57:19.379Z,3.15
2023-09-07T02:02:21.692Z,2.90
2023-09-07T02:07:24.368Z,3.25
2023-09-07T02:12:26.619Z,2.92
2023-09-07T02:17:28.866Z,2.90
2023-09-07T02:22:31.128Z,3.42
2023-09-07T02:27:37.107Z,3.22
2023-09-07T02:32:39.357Z,3.40
2023-09-07T02:37:41.595Z,3.10
2023-09-07T02:42:44.337Z,3.10
2023-09-07T02:47:47.697Z,2.88
2023-09-07T02:52:50.017Z,2.80
2023-09-07T02:57:52.471Z,2.70
2023-09-07T03:02:54.952Z,3.00
2023-09-07T03:07:57.375Z,2.80
2023-09-07T03:12:59.666Z,2.92
2023-09-07T03:18:02.423Z,2.53
2023-09-07T03:23:04.998Z,3.25
2023-09-07T03:28:07.664Z,3.05
2023-09-07T03:33:11.789Z,3.00
2023-09-07T03:38:14.884Z,2.40
2023-09-07T03:43:17.224Z,2.70
2023-09-07T03:48:20.712Z,2.75
2023-09-07T03:53:23.685Z,2.83
2023-09-07T03:58:25.864Z,3.08
2023-09-07T04:03:28.211Z,2.78
2023-09-07T04:08:30.843Z,2.60
2023-09-07T04:13:33.931Z,3.03
2023-09-07T04:18:36.065Z,3.05
2023-09-07T04:23:39.769Z,2.50
2023-09-07T04:28:42.057Z,3.00
2023-09-07T04:33:44.343Z,2.50
2023-09-07T04:38:46.841Z,3.15
2023-09-07T04:43:49.602Z,3.30
2023-09-07T04:48:51.960Z,2.65
2023-09-07T04:53:55.387Z,2.58
2023-09-07T04:58:57.983Z,3.03
2023-09-07T05:04:03.143Z,2.90
2023-09-07T05:09:05.732Z,3.20
2023-09-07T05:14:08.290Z,3.10
2023-09-07T05:19:10.589Z,3.00
2023-09-07T05:24:15.954Z,2.80
2023-09-07T05:29:18.113Z,2.90
2023-09-07T05:34:20.394Z,3.08
2023-09-07T05:39:22.775Z,3.38
2023-09-07T05:44:25.102Z,3.45
2023-09-07T05:49:27.423Z,2.78
2023-09-07T05:54:29.651Z,2.67
2023-09-07T05:59:31.946Z,2.40
2023-09-07T06:04:34.271Z,3.03
2023-09-07T06:09:36.522Z,3.95
2023-09-07T06:14:38.829Z,2.92
2023-09-07T06:19:41.498Z,2.50
2023-09-07T06:24:43.884Z,2.70
2023-09-07T06:29:46.100Z,3.00
2023-09-07T06:34:49.597Z,3.42
2023-09-07T06:39:53.040Z,3.25
2023-09-07T06:44:55.363Z,2.58
2023-09-07T06:49:58.844Z,3.10
2023-09-07T06:55:01.437Z,3.38
2023-09-07T07:00:08.011Z,3.85
2023-09-07T07:05:11.305Z,3.05
2023-09-07T07:10:13.992Z,2.85
2023-09-07T07:15:16.996Z,2.55
2023-09-07T07:20:19.214Z,2.55
2023-09-07T07:25:21.633Z,2.78
2023-09-07T07:30:23.911Z,2.50
2023-09-07T07:35:26.764Z,4.20
2023-09-07T07:40:29.260Z,3.60
2023-09-07T07:45:33.204Z,3.40
2023-09-07T07:50:41.708Z,3.10
2023-09-07T07:55:46.277Z,2.72
2023-09-07T08:00:52.681Z,3.30
2023-09-07T08:06:00.865Z,3.30
2023-09-07T08:11:06.870Z,3.33
2023-09-07T08:16:14.234Z,3.00
2023-09-07T08:21:17.520Z,3.20
2023-09-07T08:26:21.507Z,2.70
2023-09-07T08:31:23.936Z,3.28
2023-09-07T08:36:29.434Z,3.50
2023-09-07T08:41:32.308Z,3.55
2023-09-07T08:46:41.771Z,3.33
2023-09-07T08:51:43.983Z,2.97
2023-09-07T08:56:47.046Z,2.78
2023-09-07T09:01:49.243Z,3.53
2023-09-07T09:06:53.295Z,3.75
2023-09-07T09:11:55.395Z,3.47
2023-09-07T09:16:57.465Z,3.50
2023-09-07T09:21:59.801Z,3.72
2023-09-07T09:27:02.171Z,2.58
2023-09-07T09:32:05.889Z,3.00
2023-09-07T09:37:16.927Z,2.85
2023-09-07T09:42:19.297Z,2.58
2023-09-07T09:47:23.553Z,3.42
2023-09-07T09:52:27.357Z,3.20
2023-09-07T09:57:31.547Z,2.92
2023-09-07T10:02:38.686Z,2.37
2023-09-07T10:07:45.340Z,3.22
2023-09-07T10:12:54.813Z,2.78
2023-09-07T10:18:16.841Z,2.33
2023-09-07T10:23:19.864Z,2.92
2023-09-07T10:28:26.657Z,3.33
2023-09-07T10:33:28.888Z,2.92
2023-09-07T10:38:36.551Z,3.58
2023-09-07T10:43:57.064Z,2.90
2023-09-07T10:49:00.231Z,2.95
2023-09-07T10:54:02.490Z,3.08
2023-09-07T10:59:04.638Z,3.55
2023-09-07T11:04:09.335Z,3.60
2023-09-07T11:09:12.330Z,4.50
2023-09-07T11:14:14.819Z,3.30
2023-09-07T11:19:17.540Z,2.60
2023-09-07T11:24:19.891Z,2.65
2023-09-07T11:29:24.126Z,2.35
2023-09-07T11:34:26.278Z,2.80
2023-09-07T11:39:28.516Z,2.63
2023-09-07T11:44:30.632Z,2.88
2023-09-07T11:49:34.114Z,3.20
2023-09-07T11:54:36.273Z,2.72
2023-09-07T11:59:52.368Z,2.35
2023-09-07T12:05:01.806Z,2.92
2023-09-07T12:10:04.578Z,2.60
2023-09-07T12:15:08.757Z,2.80
2023-09-07T12:20:12.102Z,3.50
2023-09-07T12:25:16.271Z,2.72
2023-09-07T12:30:22.156Z,2.67
2023-09-07T12:35:24.758Z,2.47
2023-09-07T12:40:27.022Z,2.45
2023-09-07T12:45:29.236Z,2.72
2023-09-07T12:50:31.425Z,3.85
2023-09-07T12:55:34.144Z,4.53
2023-09-07T13:00:36.397Z,3.90
2023-09-07T13:05:38.693Z,3.72
2023-09-07T13:10:41.117Z,3.22
2023-09-07T13:15:43.289Z,3.70
2023-09-07T13:20:46.489Z,3.58
2023-09-07T13:25:48.613Z,2.90
2023-09-07T13:30:53.999Z,2.10
2023-09-07T13:35:56.115Z,2.13
2023-09-07T13:40:58.204Z,3.85
2023-09-07T13:46:01.465Z,3.85
2023-09-07T13:51:05.069Z,3.78
2023-09-07T13:56:07.206Z,4.43
2023-09-07T14:01:09.615Z,3.63
2023-09-07T14:06:11.788Z,3.13
2023-09-07T14:11:14.080Z,2.63
2023-09-07T14:16:16.230Z,2.40
2023-09-07T14:21:19.171Z,4.03
2023-09-07T14:26:21.509Z,3.78
2023-09-07T14:31:23.617Z,3.70
2023-09-07T14:36:25.850Z,4.43
2023-09-07T14:41:29.212Z,4.53
2023-09-07T14:46:31.606Z,4.50
2023-09-07T14:51:34.267Z,5.18
2023-09-07T14:56:36.609Z,4.72
2023-09-07T15:01:39.490Z,4.88
2023-09-07T15:06:41.708Z,5.57
2023-09-07T15:11:44.223Z,4.20
2023-09-07T15:16:46.678Z,5.10
2023-09-07T15:21:48.828Z,5.60
2023-09-07T15:26:50.975Z,4.45
2023-09-07T15:31:54.530Z,6.53
2023-09-07T15:36:56.780Z,4.97
2023-09-07T15:41:59.074Z,5.85
2023-09-07T15:47:01.247Z,4.95
2023-09-07T15:52:03.791Z,5.82
2023-09-07T15:57:07.076Z,4.38
2023-09-07T16:02:09.267Z,4.93
2023-09-07T16:07:11.490Z,5.28
2023-09-07T16:12:13.778Z,5.10
2023-09-07T16:17:16.004Z,4.85
2023-09-07T16:22:18.358Z,5.35
2023-09-07T16:27:20.524Z,5.88
2023-09-07T16:32:22.757Z,5.05
2023-09-07T16:37:27.243Z,4.28
2023-09-07T16:42:29.793Z,4.50
2023-09-07T16:47:31.967Z,4.70
2023-09-07T16:52:34.222Z,4.25
2023-09-07T16:57:36.570Z,4.95
2023-09-07T17:02:38.735Z,4.97
2023-09-07T17:07:41.012Z,4.10
2023-09-07T17:12:43.405Z,3.92
2023-09-07T17:17:45.649Z,5.00
2023-09-07T17:22:47.820Z,4.82
2023-09-07T17:27:49.962Z,4.65
2023-09-07T17:32:57.673Z,3.85
2023-09-07T17:37:59.875Z,4.18
2023-09-07T17:43:02.512Z,3.53
2023-09-07T17:48:05.106Z,4.72
2023-09-07T17:53:07.365Z,5.70
2023-09-07T17:58:09.523Z,4.82
2023-09-07T18:03:11.819Z,5.00
2023-09-07T18:08:13.954Z,4.60
2023-09-07T18:13:16.141Z,4.30
2023-09-07T18:18:18.843Z,4.70
2023-09-07T18:23:21.248Z,4.88
2023-09-07T18:28:23.368Z,4.38
2023-09-07T18:33:32.698Z,4.73
2023-09-07T18:38:35.629Z,5.07
2023-09-07T18:43:39.551Z,6.03
2023-09-07T18:48:41.637Z,5.57
2023-09-07T18:53:43.896Z,6.22
2023-09-07T18:58:46.103Z,4.30
2023-09-07T19:03:53.408Z,4.30
2023-09-07T19:08:56.002Z,4.40
2023-09-07T19:13:58.161Z,4.45
2023-09-07T19:19:00.345Z,4.50
2023-09-07T19:24:02.558Z,4.75
2023-09-07T19:29:09.475Z,4.97
2023-09-07T19:34:11.631Z,4.38
2023-09-07T19:39:14.208Z,4.25
2023-09-07T19:44:17.720Z,4.18
2023-09-07T19:49:20.776Z,4.00
2023-09-07T19:54:23.105Z,3.95
2023-09-07T19:59:25.312Z,3.83
2023-09-07T20:04:27.819Z,3.95
2023-09-07T20:09:30.299Z,4.10
2023-09-07T20:14:32.464Z,4.13
2023-09-07T20:19:44.638Z,3.83
2023-09-07T20:24:46.874Z,3.92
2023-09-07T20:29:49.134Z,4.05
2023-09-07T20:34:51.345Z,4.53
2023-09-07T20:39:55.062Z,4.22
2023-09-07T20:44:57.319Z,4.30
2023-09-07T20:49:59.604Z,4.13
2023-09-07T20:55:02.063Z,5.25
2023-09-07T21:00:07.717Z,4.97
2023-09-07T21:05:10.082Z,4.35
2023-09-07T21:10:12.357Z,5.07
2023-09-07T21:15:16.656Z,4.50
2023-09-07T21:20:18.835Z,4.55
2023-09-07T21:25:20.998Z,5.18
2023-09-07T21:30:23.797Z,4.72
2023-09-07T21:35:26.085Z,5.20
2023-09-07T21:40:28.432Z,3.90
2023-09-07T21:45:30.569Z,4.50
2023-09-07T21:50:32.779Z,5.50
2023-09-07T21:55:35.085Z,6.10
2023-09-07T22:00:37.484Z,4.38
2023-09-07T22:05:39.703Z,4.43
2023-09-07T22:10:41.930Z,5.20
2023-09-07T22:15:44.260Z,4.28
2023-09-07T22:20:46.504Z,4.40
2023-09-07T22:25:48.802Z,4.47
2023-09-07T22:30:51.175Z,4.90
2023-09-07T22:35:55.320Z,4.75
2023-09-07T22:40:57.719Z,4.15
2023-09-07T22:45:59.936Z,3.95
2023-09-07T22:51:02.316Z,5.07
2023-09-07T22:56:04.764Z,4.38
2023-09-07T23:01:07.157Z,4.28
2023-09-07T23:06:27.843Z,4.25
2023-09-07T23:11:30.043Z,4.85
2023-09-07T23:16:37.095Z,4.32
2023-09-07T23:21:39.525Z,4.80
2023-09-07T23:26:41.745Z,3.95
2023-09-07T23:31:45.042Z,4.20
2023-09-07T23:36:47.327Z,4.07
2023-09-07T23:41:49.835Z,4.78
2023-09-07T23:46:52.434Z,4.65
2023-09-07T23:51:54.955Z,4.65
2023-09-07T23:56:57.166Z,5.03
